createdAt,value
2019-02-21T00:10:00.488Z,69.40
2019-02-21T00:20:03.139Z,68.80
2019-02-21T00:30:07.157Z,70.10
2019-02-21T00:40:08.704Z,69.80
2019-02-21T00:50:10.174Z,70.50
2019-02-21T01:00:13.048Z,70.50
2019-02-21T01:10:15.341Z,70.20
2019-02-21T01:20:16.820Z,70.30
2019-02-21T01:30:18.268Z,71.20
2019-02-21T01:40:19.644Z,70.70
2019-02-21T01:50:21.053Z,70.70
2019-02-21T02:00:22.585Z,72.00
2019-02-21T02:10:25.595Z,73.30
2019-02-21T02:20:27.312Z,73.00
2019-02-21T02:30:28.774Z,73.10
2019-02-21T02:40:30.234Z,73.20
2019-02-21T02:50:31.657Z,74.00
2019-02-21T03:00:33.186Z,74.20
2019-02-21T03:10:35.623Z,73.00
2019-02-21T03:20:37.438Z,75.00
2019-02-21T03:30:38.906Z,75.40
2019-02-21T03:40:40.391Z,76.20
2019-02-21T03:50:41.731Z,76.80
2019-02-21T04:00:43.269Z,77.50
2019-02-21T04:10:45.728Z,77.60
2019-02-21T04:20:47.440Z,77.80
2019-02-21T04:30:48.898Z,76.90
2019-02-21T04:40:50.358Z,77.20
2019-02-21T04:50:54.378Z,77.20
2019-02-21T05:00:56.112Z,77.60
2019-02-21T05:10:58.596Z,78.00
2019-02-21T05:21:00.058Z,78.10
2019-02-21T05:31:03.353Z,77.60
2019-02-21T05:41:06.724Z,78.10
2019-02-21T05:51:10.058Z,78.00
2019-02-21T06:01:16.309Z,78.20
2019-02-21T06:11:29.590Z,78.30
2019-02-21T06:21:38.582Z,78.20
2019-02-21T06:31:40.031Z,78.40
2019-02-21T06:41:42.800Z,77.10
2019-02-21T06:51:44.415Z,76.70
2019-02-21T07:01:45.956Z,75.40
2019-02-21T07:11:48.405Z,73.40
2019-02-21T07:21:49.789Z,72.00
2019-02-21T07:31:51.168Z,69.50
2019-02-21T07:41:52.562Z,62.20
2019-02-21T07:51:53.979Z,51.70
2019-02-21T08:01:55.517Z,47.70
2019-02-21T08:11:58.047Z,43.80
2019-02-21T08:22:00.319Z,39.20
2019-02-21T08:32:01.906Z,36.60
2019-02-21T08:42:03.381Z,33.30
2019-02-21T08:52:04.808Z,32.50
2019-02-21T09:02:06.729Z,37.50
2019-02-21T09:12:09.182Z,43.60
2019-02-21T09:22:10.899Z,39.50
2019-02-21T09:32:12.361Z,41.90
2019-02-21T09:42:14.932Z,37.00
2019-02-21T09:52:16.356Z,31.00
2019-02-21T10:02:17.885Z,29.20
2019-02-21T10:12:20.278Z,43.10
2019-02-21T10:22:21.681Z,44.00
2019-02-21T10:32:23.165Z,47.10
2019-02-21T10:42:24.551Z,51.50
2019-02-21T10:52:25.970Z,49.80
2019-02-21T11:02:27.513Z,51.80
2019-02-21T11:12:29.902Z,55.00
2019-02-21T11:22:31.300Z,58.50
2019-02-21T11:32:32.780Z,58.20
2019-02-21T11:42:34.173Z,55.60
2019-02-21T11:52:35.583Z,54.00
2019-02-21T12:02:39.034Z,52.70
2019-02-21T12:12:41.375Z,55.00
2019-02-21T12:22:42.849Z,54.60
2019-02-21T12:32:44.247Z,52.80
2019-02-21T12:42:45.771Z,55.20
2019-02-21T12:52:47.192Z,55.40
2019-02-21T13:02:51.734Z,56.70
2019-02-21T13:12:54.121Z,58.00
2019-02-21T13:22:55.962Z,59.10
2019-02-21T13:32:57.448Z,60.20
2019-02-21T13:42:58.909Z,60.30
2019-02-21T13:53:00.659Z,61.30
2019-02-21T14:03:02.165Z,64.30
2019-02-21T14:13:04.776Z,65.00
2019-02-21T14:23:07.613Z,66.60
2019-02-21T14:33:09.048Z,66.00
2019-02-21T14:43:13.615Z,69.20
2019-02-21T14:53:13.713Z,72.50
2019-02-21T15:03:22.034Z,74.20
2019-02-21T15:13:19.460Z,74.20
2019-02-21T15:23:20.963Z,75.40
2019-02-21T15:33:22.509Z,76.80
2019-02-21T15:43:23.980Z,77.90
2019-02-21T15:53:25.424Z,81.90
2019-02-21T16:03:27.004Z,85.60
2019-02-21T16:13:29.469Z,88.10
2019-02-21T16:23:30.869Z,90.40
2019-02-21T16:33:32.353Z,91.20
2019-02-21T16:43:33.747Z,92.00
2019-02-21T16:53:35.202Z,93.20
2019-02-21T17:03:37.034Z,94.10
2019-02-21T17:13:39.441Z,94.30
2019-02-21T17:23:40.848Z,94.00
2019-02-21T17:33:42.394Z,94.60
2019-02-21T17:43:43.783Z,95.20
2019-02-21T17:53:45.273Z,95.40
2019-02-21T18:03:46.846Z,95.70
2019-02-21T18:13:49.257Z,95.80
2019-02-21T18:23:50.748Z,96.00
2019-02-21T18:33:52.304Z,95.70
2019-02-21T18:43:53.832Z,95.40
2019-02-21T18:53:55.293Z,95.40
2019-02-21T19:03:56.973Z,96.00
2019-02-21T19:13:59.509Z,95.80
2019-02-21T19:24:01.000Z,96.20
2019-02-21T19:34:02.533Z,96.90
2019-02-21T19:44:08.844Z,97.10
2019-02-21T19:54:07.249Z,96.60
2019-02-21T20:04:08.790Z,96.40
2019-02-21T20:14:11.248Z,96.30
2019-02-21T20:24:12.640Z,95.70
2019-02-21T20:34:14.100Z,95.50
2019-02-21T20:44:16.775Z,95.80
2019-02-21T20:54:18.200Z,95.70
2019-02-21T21:04:19.825Z,95.40
2019-02-21T21:14:22.228Z,95.20
2019-02-21T21:24:23.621Z,95.00
2019-02-21T21:34:26.712Z,94.30
2019-02-21T21:44:28.265Z,94.50
2019-02-21T21:54:29.696Z,94.30
2019-02-21T22:04:31.244Z,94.10
2019-02-21T22:14:33.694Z,93.90
2019-02-21T22:24:35.185Z,94.20
2019-02-21T22:34:36.681Z,94.50
2019-02-21T22:44:38.272Z,94.90
2019-02-21T22:54:39.693Z,95.00
2019-02-21T23:04:45.030Z,95.40
2019-02-21T23:14:47.520Z,95.70
2019-02-21T23:24:48.913Z,95.90
2019-02-21T23:34:51.283Z,96.10
2019-02-21T23:44:52.801Z,96.60
2019-02-21T23:54:57.681Z,96.60
